Time;durP1;ratioP1;P1;durP2;ratioP2;P2;SDS_P1;SDS_P2;PMS_P1;PMS_P2;Temp;Humidity;BMP_temperature;BMP_pressure;BME280_temperature;BME280_humidity;BME280_pressure;Samples;Min_cycle;Max_cycle;Signal;HPM_P1;HPM_P2
2022/05/14 00:01:10;;;;;;;12.63;3.47;;;;;;;;;;5101142;28;20157;-58
2022/05/14 00:03:39;;;;;;;9.18;3.50;;;;;;;;;;5094548;28;20103;-58
2022/05/14 00:06:07;;;;;;;10.07;3.42;;;;;;;;;;5099437;28;20035;-58
2022/05/14 00:08:33;;;;;;;13.15;4.00;;;;;;;;;;5093838;28;20027;-58
2022/05/14 00:13:44;;;;;;;9.35;3.30;;;;;;;;;;5089002;28;20500;-58
2022/05/14 00:16:11;;;;;;;11.48;3.58;;;;;;;;;;5095005;28;20020;-58
2022/05/14 00:18:38;;;;;;;8.30;3.45;;;;;;;;;;5097100;28;20027;-58
2022/05/14 00:21:04;;;;;;;9.82;3.00;;;;;;;;;;5101089;28;20031;-59
2022/05/14 00:23:30;;;;;;;10.73;3.70;;;;;;;;;;5092502;28;20034;-58
2022/05/14 00:25:56;;;;;;;7.40;3.08;;;;;;;;;;5100062;28;20024;-57
2022/05/14 00:28:23;;;;;;;7.65;3.50;;;;;;;;;;5090830;28;20390;-58
2022/05/14 00:30:49;;;;;;;7.03;3.25;;;;;;;;;;5096438;28;20028;-58
2022/05/14 00:33:15;;;;;;;6.72;3.25;;;;;;;;;;5097982;28;20016;-58
2022/05/14 00:35:41;;;;;;;10.80;3.90;;;;;;;;;;5087022;28;20031;-57
2022/05/14 00:38:11;;;;;;;8.27;3.47;;;;;;;;;;5089895;27;20035;-58
2022/05/14 00:40:41;;;;;;;11.65;3.50;;;;;;;;;;5096935;28;20509;-58
2022/05/14 00:43:08;;;;;;;8.13;3.47;;;;;;;;;;5095496;28;20032;-58
2022/05/14 00:45:37;;;;;;;7.43;3.40;;;;;;;;;;5094634;28;20697;-58
2022/05/14 00:48:03;;;;;;;8.98;3.67;;;;;;;;;;5094025;28;20036;-58
2022/05/14 00:50:44;;;;;;;9.00;3.50;;;;;;;;;;5088757;28;20386;-58
2022/05/14 00:53:15;;;;;;;5.80;3.20;;;;;;;;;;5089131;28;20031;-57
2022/05/14 00:55:42;;;;;;;9.77;3.60;;;;;;;;;;5097971;28;20074;-59
2022/05/14 00:58:09;;;;;;;10.32;3.50;;;;;;;;;;5100583;28;20020;-58
2022/05/14 01:00:36;;;;;;;10.70;4.03;;;;;;;;;;5094292;28;20035;-58
2022/05/14 01:03:02;;;;;;;15.32;3.90;;;;;;;;;;5087104;28;20038;-58
2022/05/14 01:05:29;;;;;;;9.55;3.80;;;;;;;;;;5096711;28;20028;-58
2022/05/14 01:07:56;;;;;;;8.52;3.75;;;;;;;;;;5090138;28;20045;-57
2022/05/14 01:10:23;;;;;;;11.90;4.40;;;;;;;;;;5098005;28;20027;-58
2022/05/14 01:12:56;;;;;;;10.32;4.20;;;;;;;;;;5088301;28;20032;-58
2022/05/14 01:15:24;;;;;;;7.47;3.67;;;;;;;;;;5082213;28;20028;-57
2022/05/14 01:17:51;;;;;;;12.52;4.10;;;;;;;;;;5088362;28;20023;-58
2022/05/14 01:20:18;;;;;;;13.18;4.10;;;;;;;;;;5096749;28;20023;-58
2022/05/14 01:22:51;;;;;;;9.32;3.80;;;;;;;;;;5096929;28;20019;-58
2022/05/14 01:28:20;;;;;;;8.40;3.90;;;;;;;;;;5090066;28;20112;-58
2022/05/14 01:30:52;;;;;;;10.13;4.22;;;;;;;;;;5090218;28;20487;-58
2022/05/14 01:33:18;;;;;;;8.27;4.05;;;;;;;;;;5088711;28;20017;-57
2022/05/14 01:35:44;;;;;;;11.05;4.63;;;;;;;;;;5083848;28;20032;-58
2022/05/14 01:38:10;;;;;;;10.55;4.22;;;;;;;;;;5091032;28;20024;-58
2022/05/14 01:40:37;;;;;;;7.57;3.90;;;;;;;;;;5091436;28;20396;-58
2022/05/14 01:43:03;;;;;;;8.27;3.85;;;;;;;;;;5099857;28;20067;-58
2022/05/14 01:45:29;;;;;;;9.90;3.88;;;;;;;;;;5097989;28;20050;-57
2022/05/14 01:47:56;;;;;;;9.60;4.63;;;;;;;;;;5082663;28;20028;-58
2022/05/14 01:50:22;;;;;;;9.82;3.92;;;;;;;;;;5085239;28;20084;-58
2022/05/14 01:52:48;;;;;;;6.93;4.00;;;;;;;;;;5087487;28;20018;-58
2022/05/14 01:55:14;;;;;;;9.65;4.25;;;;;;;;;;5095777;28;20107;-58
2022/05/14 01:57:39;;;;;;;9.93;4.47;;;;;;;;;;5096646;28;20019;-58
2022/05/14 02:00:06;;;;;;;9.07;4.50;;;;;;;;;;5088830;28;20036;-58
2022/05/14 02:02:32;;;;;;;9.45;4.13;;;;;;;;;;5091847;28;20110;-58
2022/05/14 02:04:58;;;;;;;8.38;4.20;;;;;;;;;;5096131;28;20097;-57
2022/05/14 02:07:24;;;;;;;10.45;4.03;;;;;;;;;;5102902;28;20436;-58
2022/05/14 02:09:50;;;;;;;10.38;4.03;;;;;;;;;;5093177;28;20440;-58
2022/05/14 02:12:16;;;;;;;11.40;4.00;;;;;;;;;;5087113;28;20034;-58
2022/05/14 02:14:44;;;;;;;8.82;3.95;;;;;;;;;;5095044;28;20027;-58
2022/05/14 02:17:10;;;;;;;6.25;3.83;;;;;;;;;;5090435;28;20020;-57
2022/05/14 02:19:36;;;;;;;11.77;4.40;;;;;;;;;;5099552;28;20035;-58
2022/05/14 02:22:03;;;;;;;8.38;4.38;;;;;;;;;;5100803;28;20073;-57
2022/05/14 02:24:30;;;;;;;14.00;4.45;;;;;;;;;;5099527;28;20015;-58
2022/05/14 02:26:56;;;;;;;10.77;4.65;;;;;;;;;;5094299;28;20031;-58
2022/05/14 02:29:22;;;;;;;9.57;4.35;;;;;;;;;;5097967;28;20102;-58
2022/05/14 02:31:48;;;;;;;9.25;4.32;;;;;;;;;;5095305;28;20020;-57
2022/05/14 02:34:14;;;;;;;11.75;4.30;;;;;;;;;;5094488;28;20011;-57
2022/05/14 02:36:40;;;;;;;9.95;4.53;;;;;;;;;;5101562;28;20387;-57
2022/05/14 02:39:06;;;;;;;7.68;4.57;;;;;;;;;;5093020;28;20549;-57
2022/05/14 02:41:32;;;;;;;8.77;3.95;;;;;;;;;;5085582;28;20028;-57
2022/05/14 02:43:58;;;;;;;8.93;3.90;;;;;;;;;;5083429;28;20035;-58
2022/05/14 02:46:24;;;;;;;8.85;4.10;;;;;;;;;;5088679;28;20024;-58
2022/05/14 02:48:50;;;;;;;10.75;3.67;;;;;;;;;;5085160;28;20100;-58
2022/05/14 02:51:16;;;;;;;9.43;3.92;;;;;;;;;;5095748;28;20546;-58
2022/05/14 02:53:42;;;;;;;7.57;3.83;;;;;;;;;;5100437;28;20012;-58
2022/05/14 02:56:08;;;;;;;13.32;3.67;;;;;;;;;;5092709;28;20020;-58
2022/05/14 03:01:19;;;;;;;8.23;3.58;;;;;;;;;;5084088;28;20654;-57
2022/05/14 03:03:45;;;;;;;9.75;3.88;;;;;;;;;;5100144;28;20467;-58
2022/05/14 03:06:11;;;;;;;11.55;3.42;;;;;;;;;;5091124;28;20035;-58
2022/05/14 03:08:37;;;;;;;7.35;3.40;;;;;;;;;;5092947;28;20090;-58
2022/05/14 03:11:03;;;;;;;10.80;3.38;;;;;;;;;;5088046;28;20032;-58
2022/05/14 03:13:30;;;;;;;7.72;3.03;;;;;;;;;;5101060;28;20479;-58
2022/05/14 03:15:56;;;;;;;5.85;2.88;;;;;;;;;;5104422;27;20012;-58
2022/05/14 03:18:22;;;;;;;9.20;3.13;;;;;;;;;;5088073;28;20043;-58
2022/05/14 03:20:48;;;;;;;9.43;3.08;;;;;;;;;;5095212;28;20028;-58
2022/05/14 03:23:15;;;;;;;8.52;3.20;;;;;;;;;;5095644;28;20035;-58
2022/05/14 03:25:41;;;;;;;7.45;3.30;;;;;;;;;;5096699;28;20020;-57
2022/05/14 03:28:07;;;;;;;11.73;3.53;;;;;;;;;;5098766;28;20050;-58
2022/05/14 03:30:33;;;;;;;10.55;3.20;;;;;;;;;;5087321;28;20038;-56
2022/05/14 03:32:59;;;;;;;8.55;3.17;;;;;;;;;;5090591;28;20016;-58
2022/05/14 03:35:25;;;;;;;6.90;2.90;;;;;;;;;;5097212;28;20462;-57
2022/05/14 03:37:51;;;;;;;4.82;2.70;;;;;;;;;;5098870;28;20103;-57
2022/05/14 03:40:18;;;;;;;9.82;3.00;;;;;;;;;;5098379;28;20027;-57
2022/05/14 03:42:45;;;;;;;11.25;3.47;;;;;;;;;;5098749;28;20015;-58
2022/05/14 03:45:11;;;;;;;8.45;3.15;;;;;;;;;;5093264;28;20016;-58
2022/05/14 03:47:37;;;;;;;8.75;2.75;;;;;;;;;;5100992;28;20680;-57
2022/05/14 03:50:04;;;;;;;8.32;3.10;;;;;;;;;;5095131;28;20494;-57
2022/05/14 03:52:30;;;;;;;6.85;2.63;;;;;;;;;;5102515;28;20390;-57
2022/05/14 03:54:56;;;;;;;7.38;3.05;;;;;;;;;;5103943;28;20016;-58
2022/05/14 03:57:22;;;;;;;8.50;3.10;;;;;;;;;;5097387;28;20094;-58
2022/05/14 03:59:48;;;;;;;6.85;2.85;;;;;;;;;;5086588;28;20054;-58
2022/05/14 04:02:14;;;;;;;7.60;2.70;;;;;;;;;;5092168;28;20148;-57
2022/05/14 04:04:40;;;;;;;10.25;3.22;;;;;;;;;;5095956;28;20024;-58
2022/05/14 04:07:06;;;;;;;7.75;3.03;;;;;;;;;;5106019;28;20031;-58
2022/05/14 04:09:32;;;;;;;7.95;2.78;;;;;;;;;;5088182;28;20485;-57
2022/05/14 04:11:58;;;;;;;5.68;2.97;;;;;;;;;;5091258;28;20452;-58
2022/05/14 04:14:25;;;;;;;10.27;3.03;;;;;;;;;;5091741;28;20020;-57
2022/05/14 04:16:51;;;;;;;7.80;2.70;;;;;;;;;;5093601;28;20020;-58
2022/05/14 04:19:19;;;;;;;11.18;3.03;;;;;;;;;;5093316;27;20082;-58
2022/05/14 04:21:45;;;;;;;8.20;3.10;;;;;;;;;;5100478;28;20055;-58
2022/05/14 04:24:11;;;;;;;7.75;3.30;;;;;;;;;;5087209;28;20087;-58
2022/05/14 04:26:38;;;;;;;7.65;2.65;;;;;;;;;;5094769;28;20081;-58
2022/05/14 04:29:04;;;;;;;8.63;2.60;;;;;;;;;;5096753;28;20107;-58
2022/05/14 04:31:31;;;;;;;7.13;2.78;;;;;;;;;;5101805;28;20031;-56
2022/05/14 04:33:57;;;;;;;8.20;3.25;;;;;;;;;;5091956;28;20111;-57
2022/05/14 04:36:23;;;;;;;7.40;2.90;;;;;;;;;;5084491;28;20103;-57
2022/05/14 04:38:49;;;;;;;6.90;3.03;;;;;;;;;;5096864;28;20024;-57
2022/05/14 04:41:15;;;;;;;12.45;4.32;;;;;;;;;;5083960;28;20633;-57
2022/05/14 04:43:42;;;;;;;10.43;3.50;;;;;;;;;;5095659;28;20035;-58
2022/05/14 04:46:08;;;;;;;8.90;3.03;;;;;;;;;;5098106;28;20036;-58
2022/05/14 04:48:35;;;;;;;7.32;3.22;;;;;;;;;;5104660;28;20020;-58
2022/05/14 04:51:01;;;;;;;6.25;2.97;;;;;;;;;;5101483;28;20031;-58
2022/05/14 04:53:27;;;;;;;8.80;3.92;;;;;;;;;;5096133;28;20021;-58
2022/05/14 04:55:53;;;;;;;12.90;4.15;;;;;;;;;;5101663;28;20494;-58
2022/05/14 04:58:20;;;;;;;12.15;4.50;;;;;;;;;;5086595;28;20022;-57
2022/05/14 05:00:46;;;;;;;15.27;5.85;;;;;;;;;;5093660;28;20070;-58
2022/05/14 05:03:19;;;;;;;14.02;4.95;;;;;;;;;;5096919;28;20172;-58
2022/05/14 05:05:55;;;;;;;10.25;3.78;;;;;;;;;;5094503;28;20416;-58
2022/05/14 05:08:23;;;;;;;11.40;3.97;;;;;;;;;;5086883;28;20123;-58
2022/05/14 05:10:49;;;;;;;9.20;3.60;;;;;;;;;;5085901;28;20024;-58
2022/05/14 05:13:20;;;;;;;9.23;3.95;;;;;;;;;;5088054;28;20107;-58
2022/05/14 05:15:46;;;;;;;9.18;3.60;;;;;;;;;;5091279;28;20030;-56
2022/05/14 05:18:12;;;;;;;13.70;4.97;;;;;;;;;;5098357;27;20023;-57
2022/05/14 05:20:39;;;;;;;9.02;4.03;;;;;;;;;;5097063;28;20027;-57
2022/05/14 05:23:05;;;;;;;11.20;4.05;;;;;;;;;;5097159;28;20470;-56
2022/05/14 05:25:32;;;;;;;10.90;4.13;;;;;;;;;;5092747;28;20096;-58
2022/05/14 05:27:58;;;;;;;6.70;3.50;;;;;;;;;;5091956;27;20040;-57
2022/05/14 05:30:25;;;;;;;9.38;3.90;;;;;;;;;;5088063;28;20024;-58
2022/05/14 05:32:51;;;;;;;9.85;3.95;;;;;;;;;;5085960;28;20103;-58
2022/05/14 05:35:17;;;;;;;11.35;3.97;;;;;;;;;;5091267;28;20570;-58
2022/05/14 05:37:44;;;;;;;8.75;3.88;;;;;;;;;;5095395;28;20043;-58
2022/05/14 05:40:10;;;;;;;11.13;3.55;;;;;;;;;;5089158;28;20084;-58
2022/05/14 05:42:36;;;;;;;11.50;4.03;;;;;;;;;;5087394;28;20032;-58
2022/05/14 05:45:03;;;;;;;9.38;4.50;;;;;;;;;;5092721;28;20030;-58
2022/05/14 05:47:29;;;;;;;13.73;4.25;;;;;;;;;;5098149;28;20091;-58
2022/05/14 05:49:54;;;;;;;21.95;6.65;;;;;;;;;;5101041;28;20028;-58
2022/05/14 05:52:20;;;;;;;13.80;4.10;;;;;;;;;;5085645;28;20020;-58
2022/05/14 05:57:35;;;;;;;14.07;4.25;;;;;;;;;;5091261;28;20915;-58
2022/05/14 06:00:04;;;;;;;7.45;4.10;;;;;;;;;;5077065;28;20243;-58
2022/05/14 06:02:30;;;;;;;23.58;6.45;;;;;;;;;;5093149;28;20023;-58
2022/05/14 06:04:56;;;;;;;11.93;3.83;;;;;;;;;;5091934;28;20483;-57
2022/05/14 06:07:22;;;;;;;14.80;4.03;;;;;;;;;;5092303;28;20052;-58
2022/05/14 06:09:48;;;;;;;7.90;4.03;;;;;;;;;;5091797;28;20012;-58
2022/05/14 06:12:15;;;;;;;8.43;3.88;;;;;;;;;;5082357;28;20025;-57
2022/05/14 06:14:41;;;;;;;10.20;5.00;;;;;;;;;;5086367;28;20031;-58
2022/05/14 06:17:07;;;;;;;13.48;5.00;;;;;;;;;;5088245;28;20032;-58
2022/05/14 06:19:33;;;;;;;13.60;5.25;;;;;;;;;;5083072;28;20031;-58
2022/05/14 06:21:59;;;;;;;12.35;4.50;;;;;;;;;;5094350;28;20110;-58
2022/05/14 06:24:25;;;;;;;11.43;4.63;;;;;;;;;;5083790;28;20586;-58
2022/05/14 06:26:51;;;;;;;12.82;4.75;;;;;;;;;;5087503;28;20368;-58
2022/05/14 06:29:17;;;;;;;12.43;4.97;;;;;;;;;;5078461;28;20020;-58
2022/05/14 06:31:43;;;;;;;13.70;5.05;;;;;;;;;;5081732;28;20042;-58
2022/05/14 06:34:09;;;;;;;14.48;5.60;;;;;;;;;;5069778;28;20052;-58
2022/05/14 06:36:35;;;;;;;13.40;5.57;;;;;;;;;;5075213;28;20024;-59
2022/05/14 06:39:02;;;;;;;10.88;5.18;;;;;;;;;;5082309;28;20439;-59
2022/05/14 06:41:28;;;;;;;18.15;6.05;;;;;;;;;;5077077;28;20032;-58
2022/05/14 06:43:54;;;;;;;12.93;5.20;;;;;;;;;;5088520;28;20372;-58
2022/05/14 06:46:20;;;;;;;12.73;5.70;;;;;;;;;;5084378;28;20024;-59
2022/05/14 06:48:46;;;;;;;14.90;5.60;;;;;;;;;;5085702;28;20035;-59
2022/05/14 06:51:14;;;;;;;15.52;5.95;;;;;;;;;;5100878;28;20039;-59
2022/05/14 06:53:41;;;;;;;10.77;5.22;;;;;;;;;;5099708;28;20024;-59
2022/05/14 06:56:07;;;;;;;14.85;5.57;;;;;;;;;;5084481;28;20025;-58
2022/05/14 06:58:35;;;;;;;14.35;6.22;;;;;;;;;;5070535;28;20039;-58
2022/05/14 07:01:01;;;;;;;35.47;24.70;;;;;;;;;;5082167;28;20169;-57
2022/05/14 07:08:58;;;;;;;18.15;5.68;;;;;;;;;;5098201;28;20054;-58
2022/05/14 07:11:24;;;;;;;12.30;6.03;;;;;;;;;;5086089;28;20024;-58
2022/05/14 07:13:54;;;;;;;16.15;6.57;;;;;;;;;;5086752;28;20026;-58
2022/05/14 07:16:20;;;;;;;20.02;7.00;;;;;;;;;;5086433;28;20115;-58
2022/05/14 07:18:46;;;;;;;15.93;6.10;;;;;;;;;;5102069;28;20444;-58
2022/05/14 07:21:12;;;;;;;11.75;5.82;;;;;;;;;;5092062;28;20115;-57
2022/05/14 07:23:38;;;;;;;13.10;6.82;;;;;;;;;;5094297;28;20166;-58
2022/05/14 07:26:05;;;;;;;17.20;6.43;;;;;;;;;;5095543;28;20352;-58
2022/05/14 07:28:31;;;;;;;14.75;6.63;;;;;;;;;;5104197;28;20012;-58
2022/05/14 07:30:57;;;;;;;17.48;6.40;;;;;;;;;;5099996;28;20023;-59
2022/05/14 07:33:23;;;;;;;18.35;6.43;;;;;;;;;;5088437;28;20030;-58
2022/05/14 07:35:49;;;;;;;19.55;6.57;;;;;;;;;;5093615;28;20023;-58
2022/05/14 07:38:15;;;;;;;17.63;6.43;;;;;;;;;;5097336;28;20024;-58
2022/05/14 07:40:41;;;;;;;19.25;6.57;;;;;;;;;;5098680;28;20042;-58
2022/05/14 07:43:23;;;;;;;19.58;6.57;;;;;;;;;;5084627;28;20691;-59
2022/05/14 07:45:54;;;;;;;17.40;6.68;;;;;;;;;;5084018;28;20046;-57
2022/05/14 07:48:26;;;;;;;17.20;6.72;;;;;;;;;;5097297;28;20111;-58
2022/05/14 07:50:52;;;;;;;17.55;7.10;;;;;;;;;;5089037;28;20020;-58
2022/05/14 07:53:18;;;;;;;17.63;6.28;;;;;;;;;;5092671;28;20026;-59
2022/05/14 07:55:45;;;;;;;13.77;6.40;;;;;;;;;;5095333;28;20377;-58
2022/05/14 07:58:11;;;;;;;15.25;6.45;;;;;;;;;;5092785;28;20023;-59
2022/05/14 08:00:38;;;;;;;20.50;7.90;;;;;;;;;;5100746;28;20029;-59
2022/05/14 08:03:04;;;;;;;18.73;7.78;;;;;;;;;;5098411;28;20036;-58
2022/05/14 08:05:30;;;;;;;18.58;7.18;;;;;;;;;;5087779;28;20116;-59
2022/05/14 08:07:56;;;;;;;27.92;7.50;;;;;;;;;;5100924;28;20102;-59
2022/05/14 08:10:22;;;;;;;17.88;6.95;;;;;;;;;;5099753;28;20115;-58
2022/05/14 08:12:51;;;;;;;21.23;6.97;;;;;;;;;;5091437;28;20527;-59
2022/05/14 08:15:18;;;;;;;17.80;6.72;;;;;;;;;;5089786;28;20443;-58
2022/05/14 08:17:44;;;;;;;20.00;6.72;;;;;;;;;;5104251;28;20015;-59
2022/05/14 08:20:11;;;;;;;16.45;6.28;;;;;;;;;;5096275;28;20461;-59
2022/05/14 08:25:22;;;;;;;17.35;6.47;;;;;;;;;;5083453;28;20039;-59
2022/05/14 08:27:48;;;;;;;19.15;6.05;;;;;;;;;;5091383;28;20461;-59
2022/05/14 08:30:15;;;;;;;17.88;6.05;;;;;;;;;;5104339;28;20111;-59
2022/05/14 08:32:41;;;;;;;17.48;6.45;;;;;;;;;;5104012;28;20024;-59
2022/05/14 08:35:08;;;;;;;21.10;6.22;;;;;;;;;;5095393;28;20034;-58
2022/05/14 08:37:35;;;;;;;21.90;7.18;;;;;;;;;;5100526;28;20028;-59
2022/05/14 08:40:05;;;;;;;14.68;5.80;;;;;;;;;;5090546;28;20534;-58
2022/05/14 08:42:33;;;;;;;14.55;5.68;;;;;;;;;;5085882;28;20932;-59
2022/05/14 08:44:59;;;;;;;19.73;5.80;;;;;;;;;;5095761;28;20085;-58
2022/05/14 08:47:28;;;;;;;18.98;6.53;;;;;;;;;;5091543;28;20028;-59
2022/05/14 08:49:55;;;;;;;17.80;5.60;;;;;;;;;;5095313;28;20028;-59
2022/05/14 08:52:24;;;;;;;18.88;5.53;;;;;;;;;;5091181;28;20121;-58
2022/05/14 08:54:54;;;;;;;14.82;6.57;;;;;;;;;;5097666;28;20031;-59
2022/05/14 08:57:26;;;;;;;15.88;5.60;;;;;;;;;;5095168;28;20066;-59
2022/05/14 08:59:53;;;;;;;17.75;6.03;;;;;;;;;;5089976;28;20048;-59
2022/05/14 09:02:21;;;;;;;13.88;5.30;;;;;;;;;;5093713;28;20027;-58
2022/05/14 09:04:49;;;;;;;15.57;5.60;;;;;;;;;;5098504;27;20099;-59
2022/05/14 09:07:15;;;;;;;16.95;5.45;;;;;;;;;;5083419;28;20016;-59
2022/05/14 09:09:55;;;;;;;16.58;5.38;;;;;;;;;;5091753;28;20036;-59
2022/05/14 09:12:23;;;;;;;16.73;5.05;;;;;;;;;;5086139;28;20039;-58
2022/05/14 09:14:53;;;;;;;13.70;5.35;;;;;;;;;;5096507;28;20035;-59
2022/05/14 09:17:20;;;;;;;15.68;5.13;;;;;;;;;;5088032;28;20066;-59
2022/05/14 09:19:47;;;;;;;15.10;5.32;;;;;;;;;;5097477;28;20027;-59
2022/05/14 09:22:22;;;;;;;19.10;6.03;;;;;;;;;;5095203;28;20038;-59
2022/05/14 09:24:51;;;;;;;19.52;5.55;;;;;;;;;;5097018;28;20391;-59
2022/05/14 09:27:22;;;;;;;16.05;5.40;;;;;;;;;;5103323;28;20729;-59
2022/05/14 09:29:51;;;;;;;16.35;5.50;;;;;;;;;;5091724;28;20424;-59
2022/05/14 09:32:17;;;;;;;15.75;4.95;;;;;;;;;;5094231;28;20711;-59
2022/05/14 09:34:43;;;;;;;14.85;4.88;;;;;;;;;;5084078;28;20031;-59
2022/05/14 09:37:10;;;;;;;17.05;5.28;;;;;;;;;;5095913;28;20020;-59
2022/05/14 09:39:37;;;;;;;21.95;5.85;;;;;;;;;;5098949;27;20023;-59
2022/05/14 09:42:04;;;;;;;14.73;5.22;;;;;;;;;;5098020;28;20040;-59
2022/05/14 09:44:39;;;;;;;20.13;5.43;;;;;;;;;;5091255;28;20026;-59
2022/05/14 09:47:09;;;;;;;18.27;4.93;;;;;;;;;;5088739;28;20035;-59
2022/05/14 09:49:39;;;;;;;14.07;5.45;;;;;;;;;;5091373;28;20069;-59
2022/05/14 09:52:07;;;;;;;16.70;5.22;;;;;;;;;;5095839;28;20020;-59
2022/05/14 09:54:50;;;;;;;18.92;5.93;;;;;;;;;;5086565;28;20032;-59
2022/05/14 09:57:25;;;;;;;18.55;5.43;;;;;;;;;;5090713;28;20522;-60
2022/05/14 10:00:08;;;;;;;21.08;5.63;;;;;;;;;;5089390;28;20062;-59
2022/05/14 10:02:51;;;;;;;15.43;5.65;;;;;;;;;;5089926;28;20640;-59
2022/05/14 10:05:17;;;;;;;18.02;4.88;;;;;;;;;;5088047;28;20054;-59
2022/05/14 10:07:48;;;;;;;16.77;4.75;;;;;;;;;;5095851;28;20058;-59
2022/05/14 10:10:33;;;;;;;16.73;5.05;;;;;;;;;;5097724;28;20059;-59
2022/05/14 10:13:22;;;;;;;12.88;4.60;;;;;;;;;;5091090;28;20131;-59
2022/05/14 10:16:08;;;;;;;16.98;5.22;;;;;;;;;;5084884;28;20038;-60
2022/05/14 10:18:53;;;;;;;22.35;5.32;;;;;;;;;;5088237;28;20089;-59
2022/05/14 10:21:31;;;;;;;15.25;4.80;;;;;;;;;;5089326;28;20741;-59
2022/05/14 10:27:08;;;;;;;15.25;5.10;;;;;;;;;;5092298;28;20078;-59
2022/05/14 10:29:37;;;;;;;16.35;5.05;;;;;;;;;;5083357;28;20026;-59
2022/05/14 10:32:13;;;;;;;14.88;4.85;;;;;;;;;;5096971;28;20554;-60
2022/05/14 10:34:45;;;;;;;15.90;4.63;;;;;;;;;;5099319;28;20027;-59
2022/05/14 10:37:18;;;;;;;18.30;4.90;;;;;;;;;;5101336;28;20012;-60
2022/05/14 10:40:02;;;;;;;15.27;4.40;;;;;;;;;;5092466;28;20028;-59
2022/05/14 10:42:34;;;;;;;14.00;4.90;;;;;;;;;;5096917;28;20087;-59
2022/05/14 10:45:29;;;;;;;14.32;4.57;;;;;;;;;;5089456;28;20020;-59
2022/05/14 10:47:55;;;;;;;15.02;4.10;;;;;;;;;;5080863;28;20389;-59
2022/05/14 10:50:22;;;;;;;17.52;5.35;;;;;;;;;;5087299;28;20032;-59
2022/05/14 10:52:50;;;;;;;13.20;4.88;;;;;;;;;;5091148;28;20050;-59
2022/05/14 10:55:18;;;;;;;18.33;4.50;;;;;;;;;;5087308;28;20028;-60
2022/05/14 10:57:46;;;;;;;12.75;4.18;;;;;;;;;;5074668;28;20075;-59
2022/05/14 11:00:12;;;;;;;16.23;4.25;;;;;;;;;;5095281;28;20027;-60
2022/05/14 11:02:51;;;;;;;15.55;4.00;;;;;;;;;;5097481;28;20530;-59
2022/05/14 11:05:26;;;;;;;12.38;3.75;;;;;;;;;;5089020;28;20033;-59
2022/05/14 11:07:52;;;;;;;15.98;4.90;;;;;;;;;;5091812;28;20073;-59
2022/05/14 11:10:20;;;;;;;17.15;4.63;;;;;;;;;;5097640;28;20027;-59
2022/05/14 11:12:48;;;;;;;13.23;4.10;;;;;;;;;;5089033;28;20035;-59
2022/05/14 11:15:30;;;;;;;21.42;5.05;;;;;;;;;;5085860;28;20427;-59
2022/05/14 11:18:07;;;;;;;13.63;4.18;;;;;;;;;;5091513;28;20297;-59
2022/05/14 11:20:33;;;;;;;15.25;4.25;;;;;;;;;;5090704;28;20024;-60
2022/05/14 11:23:25;;;;;;;19.02;4.32;;;;;;;;;;5092049;28;20039;-59
2022/05/14 11:26:11;;;;;;;18.23;4.38;;;;;;;;;;5091458;28;20043;-59
2022/05/14 11:28:37;;;;;;;13.52;4.25;;;;;;;;;;5092029;28;20028;-59
2022/05/14 11:31:11;;;;;;;17.98;4.32;;;;;;;;;;5100864;28;20028;-59
2022/05/14 11:33:37;;;;;;;14.25;3.72;;;;;;;;;;5086979;28;20032;-59
2022/05/14 11:36:12;;;;;;;14.88;3.97;;;;;;;;;;5096555;28;20145;-59
2022/05/14 11:38:39;;;;;;;15.30;4.20;;;;;;;;;;5094390;28;20211;-59
2022/05/14 11:41:08;;;;;;;16.23;4.60;;;;;;;;;;5100989;28;20042;-59
2022/05/14 11:43:37;;;;;;;15.90;4.80;;;;;;;;;;5092239;28;20502;-60
2022/05/14 11:46:09;;;;;;;13.05;4.43;;;;;;;;;;5094015;28;20543;-60
2022/05/14 11:48:47;;;;;;;21.45;5.57;;;;;;;;;;5090277;28;20393;-59
2022/05/14 11:51:23;;;;;;;16.13;4.00;;;;;;;;;;5103638;28;20105;-59
2022/05/14 11:53:53;;;;;;;14.65;3.50;;;;;;;;;;5097181;28;20383;-59
2022/05/14 11:56:27;;;;;;;19.45;4.80;;;;;;;;;;5087915;28;20023;-59
2022/05/14 11:59:09;;;;;;;12.00;3.92;;;;;;;;;;5089706;28;20134;-59
2022/05/14 12:01:37;;;;;;;14.85;4.35;;;;;;;;;;5102023;28;20039;-60
2022/05/14 12:04:08;;;;;;;13.68;4.13;;;;;;;;;;5089420;28;20025;-59
2022/05/14 12:06:43;;;;;;;16.48;4.35;;;;;;;;;;5101759;28;20099;-59
2022/05/14 12:09:18;;;;;;;14.02;4.10;;;;;;;;;;5090585;28;20055;-59
2022/05/14 12:11:58;;;;;;;14.85;4.10;;;;;;;;;;5088866;28;20085;-60
2022/05/14 12:14:31;;;;;;;18.20;3.70;;;;;;;;;;5082065;28;20487;-59
2022/05/14 12:16:58;;;;;;;13.00;3.72;;;;;;;;;;5096282;28;20064;-59
2022/05/14 12:19:26;;;;;;;14.48;3.35;;;;;;;;;;5095422;28;20012;-59
2022/05/14 12:21:54;;;;;;;13.55;3.70;;;;;;;;;;5097654;28;20141;-59
2022/05/14 12:24:22;;;;;;;14.43;2.92;;;;;;;;;;5102979;28;20056;-59
2022/05/14 12:26:48;;;;;;;13.40;3.28;;;;;;;;;;5094743;28;20126;-59
2022/05/14 12:29:16;;;;;;;9.98;3.55;;;;;;;;;;5088655;28;20118;-59
2022/05/14 12:34:37;;;;;;;12.98;3.00;;;;;;;;;;5089774;28;20027;-59
2022/05/14 12:37:04;;;;;;;12.10;3.38;;;;;;;;;;5088555;28;20024;-59
2022/05/14 12:39:31;;;;;;;11.57;3.22;;;;;;;;;;5084653;28;20395;-59
2022/05/14 12:41:59;;;;;;;13.48;3.10;;;;;;;;;;5082199;28;20090;-59
2022/05/14 12:44:34;;;;;;;11.40;3.17;;;;;;;;;;5102457;28;20102;-59
2022/05/14 12:47:01;;;;;;;11.15;3.10;;;;;;;;;;5096465;28;20134;-59
2022/05/14 12:49:29;;;;;;;12.30;3.45;;;;;;;;;;5092841;28;20367;-59
2022/05/14 12:51:56;;;;;;;12.85;3.28;;;;;;;;;;5101092;28;20034;-59
2022/05/14 12:54:27;;;;;;;10.60;3.20;;;;;;;;;;5096827;28;20020;-60
2022/05/14 12:56:55;;;;;;;9.55;3.40;;;;;;;;;;5088516;28;20020;-59
2022/05/14 12:59:22;;;;;;;11.90;3.08;;;;;;;;;;5087865;28;20021;-59
2022/05/14 13:01:50;;;;;;;10.68;3.33;;;;;;;;;;5090352;28;20476;-59
2022/05/14 13:04:18;;;;;;;11.75;2.95;;;;;;;;;;5086642;28;20537;-59
2022/05/14 13:06:45;;;;;;;14.00;3.42;;;;;;;;;;5095468;28;20020;-59
2022/05/14 13:09:17;;;;;;;12.35;3.58;;;;;;;;;;5092889;28;20039;-59
2022/05/14 13:11:48;;;;;;;18.13;5.97;;;;;;;;;;5087834;28;20062;-59
2022/05/14 13:14:27;;;;;;;22.25;11.40;;;;;;;;;;5087264;28;20379;-59
2022/05/14 13:16:58;;;;;;;16.83;3.90;;;;;;;;;;5089272;28;20594;-59
2022/05/14 13:19:38;;;;;;;12.65;3.00;;;;;;;;;;5096274;28;20019;-59
2022/05/14 13:22:07;;;;;;;15.00;3.42;;;;;;;;;;5089409;28;20035;-59
2022/05/14 13:24:33;;;;;;;10.15;3.65;;;;;;;;;;5087285;28;20432;-57
2022/05/14 13:27:04;;;;;;;15.60;4.07;;;;;;;;;;5095394;28;20056;-59
2022/05/14 13:29:37;;;;;;;11.80;3.38;;;;;;;;;;5093374;28;20043;-59
2022/05/14 13:32:06;;;;;;;14.25;3.60;;;;;;;;;;5091450;28;20031;-58
2022/05/14 13:37:22;;;;;;;13.13;3.85;;;;;;;;;;5094612;28;20035;-58
2022/05/14 13:39:50;;;;;;;12.27;3.65;;;;;;;;;;5106609;28;20019;-59
2022/05/14 13:42:22;;;;;;;9.32;3.40;;;;;;;;;;5094757;28;20081;-58
2022/05/14 13:44:50;;;;;;;11.07;3.58;;;;;;;;;;5099303;28;20073;-58
2022/05/14 13:47:17;;;;;;;15.15;3.50;;;;;;;;;;5101471;28;20027;-58
2022/05/14 13:49:44;;;;;;;14.23;3.75;;;;;;;;;;5098998;28;20024;-59
2022/05/14 13:52:10;;;;;;;12.27;3.97;;;;;;;;;;5092684;28;20103;-58
2022/05/14 13:54:38;;;;;;;7.72;2.70;;;;;;;;;;5092317;28;20098;-59
2022/05/14 13:57:13;;;;;;;13.07;3.85;;;;;;;;;;5084996;28;20017;-58
2022/05/14 13:59:39;;;;;;;13.13;3.65;;;;;;;;;;5084939;28;20064;-59
2022/05/14 14:02:17;;;;;;;10.57;3.90;;;;;;;;;;5081116;28;20035;-59
2022/05/14 14:04:43;;;;;;;12.45;3.25;;;;;;;;;;5085675;28;20441;-59
2022/05/14 14:07:10;;;;;;;13.85;3.83;;;;;;;;;;5091903;28;20019;-59
2022/05/14 14:09:37;;;;;;;10.40;3.47;;;;;;;;;;5089964;28;20024;-58
2022/05/14 14:12:03;;;;;;;12.07;3.75;;;;;;;;;;5080049;28;20039;-58
2022/05/14 14:14:29;;;;;;;15.57;3.80;;;;;;;;;;5083463;28;20506;-58
2022/05/14 14:16:56;;;;;;;12.45;3.70;;;;;;;;;;5080613;28;20020;-58
2022/05/14 14:19:22;;;;;;;11.68;4.32;;;;;;;;;;5091203;28;20042;-59
2022/05/14 14:21:49;;;;;;;14.40;4.13;;;;;;;;;;5089619;28;20026;-59
2022/05/14 14:24:16;;;;;;;10.30;3.10;;;;;;;;;;5098334;28;20039;-59
2022/05/14 14:26:43;;;;;;;13.55;3.90;;;;;;;;;;5094417;28;20035;-59
2022/05/14 14:29:09;;;;;;;9.38;3.10;;;;;;;;;;5093253;28;20043;-59
2022/05/14 14:31:36;;;;;;;10.60;3.22;;;;;;;;;;5101926;28;20024;-58
2022/05/14 14:34:02;;;;;;;11.85;3.13;;;;;;;;;;5096876;28;20024;-58
2022/05/14 14:36:29;;;;;;;12.32;3.80;;;;;;;;;;5090386;28;20412;-59
2022/05/14 14:38:55;;;;;;;12.57;3.50;;;;;;;;;;5086873;28;20020;-58
2022/05/14 14:41:21;;;;;;;9.95;3.22;;;;;;;;;;5091733;28;20041;-59
2022/05/14 14:43:48;;;;;;;12.32;3.67;;;;;;;;;;5089990;28;20111;-59
2022/05/14 14:46:15;;;;;;;11.82;3.65;;;;;;;;;;5095373;28;20498;-58
2022/05/14 14:48:41;;;;;;;9.65;3.50;;;;;;;;;;5101236;28;20746;-59
2022/05/14 14:51:07;;;;;;;10.65;3.55;;;;;;;;;;5100845;28;20024;-59
2022/05/14 14:53:34;;;;;;;8.70;3.63;;;;;;;;;;5094687;28;20073;-58
2022/05/14 14:56:00;;;;;;;10.02;3.45;;;;;;;;;;5082018;28;20027;-59
2022/05/14 14:58:26;;;;;;;10.55;3.50;;;;;;;;;;5094778;28;20611;-59
2022/05/14 15:00:53;;;;;;;8.68;3.28;;;;;;;;;;5078067;28;20060;-59
2022/05/14 15:03:24;;;;;;;11.32;3.60;;;;;;;;;;5091351;28;20032;-58
2022/05/14 15:05:51;;;;;;;8.48;3.10;;;;;;;;;;5094334;28;20068;-58
2022/05/14 15:08:20;;;;;;;9.77;2.97;;;;;;;;;;5096013;28;20456;-58